Fougeres (35) - D

Date : 29/10/2012
Distance : 1,600 km

Place Nom Licence Catégorie Club Temps min/km CN à J-60 Points Différence Nouveau CN
1 LUTHRINGER Coline 10091 D16 8809LO 0:20:09 12'35 4894 4472 -422 4894
2 CONIEL Lise 14886 D18 5604BR 0:20:21 12'43 5394 4428 -966 5394
3 RIVOLLIER Isaline 22451 D16 4201RA 0:20:58 13'06 4550 4297 -253 5051
4 DENAIX Lou 7711 D20 7403RA 0:21:01 13'08 5837 4287 -1550 6088
5 OTSAMO Pihla 25029 D18 5907NO 0:21:13 13'15 6439 4247 -2192 6589
6 CRETE Camille 18828 D18 6008PI 0:21:40 13'32 3821 4159 +338 4228
7 BASSET Fiona 23384 D16 6911RA 0:21:46 13'36 5135 4140 -995 5669
8 LENOBLE Lou 23559 D14 6208NO 0:21:48 13'37 3086 4133 +1047 3952
9 DUDOUT Malaurine 24516 D16 2704NM 0:21:50 13'38 2523 4127 +1604 3913
10 BESTEL Sandra 10758 D16 9105IF 0:21:54 13'41 4077 4114 +37 4481
11 ELIAS Pauline 16137 D16 1307PR 0:21:54 13'41 3981 4114 +133 4432
12 GUILMAIN Melanie 20572 D18 6208NO 0:22:26 14'01 4313 4017 -296 4356
13 MORLON Louise 7788 D18 5702LO 0:22:45 14'13 4175 3961 -214 4145
14 DEJARDIN Emilie 10863 D18 1307PR 0:22:51 14'16 4448 3943 -505 4448
15 DUQUENNE Audrey 23885 D16 5907NO 0:23:15 14'31 4168 3875 -293 4624
16 BESSON Manon 20625 D18 4201RA 0:23:29 14'40 3631 3837 +206 3916
17 ALAFORT Lucie 22475 D18 5116CA 0:23:40 14'47 3431 3807 +376 3984
18 FIGUIERE Lucile 10087 D16 7109BO 0:23:44 14'50 2908 3797 +889 3564
19 CHARDOT Julia 19345 D18 7807IF 0:24:06 15'03 5162 3739 -1423 5162
20 DELENNE Joanna 17030 D14 1307PR 0:24:07 15'04 3098 3736 +638 3497
21 CONIEL Laura 14887 D14 5604BR 0:24:20 15'12 3600 3703 +103 3775
22 DE BEAUPUIS Joséphine 25974 D14 6205NO 0:24:31 15'19 2068 3675 +1607 2520
23 ESTIVAL Solene 12561 D14 7709IF 0:24:41 15'25 3503 3650 +147 4096
24 MOUSSU Sarah 22301 D16 3318AQ 0:24:44 15'27 4205 3643 -562 4494
25 KASTENSSON Hedda 20616 D14 0615AZ 0:24:45 15'28 3266 3641 +375 3613
26 SERPE Milena 24816 D14 0207PI 0:24:50 15'31 1631 3628 +1997 3277
27 DIDIER Marion 19566 D14 7305RA 0:24:58 15'36 3078 3609 +531 3699
28 FOL Loreline 16393 D16 3105MP 0:25:01 15'38 4599 3602 -997 4949
29 FONTAINE Helise 22962 D18 5907NO 0:25:01 15'38 4740 3602 -1138 4740
30 MARTINET JANNIN Léa 26512 D16 2517FC 0:25:08 15'42 3585 3513
31 CRETE Juliette 18829 D16 6008PI 0:25:13 15'45 3183 3573 +390 4095
32 DELENNE Camilla 13800 D16 1307PR 0:25:13 15'45 4640 3573 -1067 5271
33 CHARDOT Marion 22315 D16 7807IF 0:25:20 15'50 4326 3557 -769 4539
34 TRESSOL Marine 20532 D14 4704AQ 0:25:31 15'56 3424 3531 +107 4436
35 KASTENSSON Ellen 20484 D18 0615AZ 0:25:42 16'03 4631 3506 -1125 4631
36 ROUX Angéle 25238 D16 4201RA 0:26:02 16'16 3461 0
37 LEPERQUE Ophelie 20200 D18 6208NO 0:26:06 16'18 4538 3452 -1086 4765
38 PICAZO Marie 16555 D16 8405PR 0:26:11 16'21 4857 3441 -1416 5210
39 DELCUSE Julie 23595 D14 6205NO 0:26:28 16'32 2643 3404 +761 3330
40 VERDIN Alix 15276 D18 7109BO 0:26:29 16'33 3852 3402 -450 3842
41 DODIER Orianne 10485 D18 8405PR 0:26:46 16'43 4626 3366 -1260 4626
42 DUVALLET Marion 26487 D18 2704NM 0:27:16 17'02 0 3305 3076
43 LOGE Jeanne 12770 D14 5703LO 0:27:16 17'02 2845 3305 +460 3257
44 ALLE Capucine 25922 D16 5402LO 0:27:27 17'09 1252 3282 +2030 1747
45 VANOVERBERGHE Camille 21323 D18 6208NO 0:27:28 17'10 5015 3280 -1735 4968
46 LEVESY Salomé 23127 D14 3810RA 0:27:36 17'15 2822 3265 +443 3038
47 BERCHE Léa 24420 D16 5907NO 0:28:01 17'30 3153 3216 +63 3201
48 DASILVA Auriane 12758 D16 7707IF 0:28:08 17'35 2605 3203 +598 2750
49 DUDOUT Loane 25953 D14 2704NM 0:28:11 17'36 1691 3197 +1506 3023
50 OZENNE Camille 26166 D18 1403NM 0:28:22 17'43 2621 3176 +555 2942
51 BELLE Clémence 24444 D14 6205NO 0:28:43 17'56 2605 3138 +533 3137
52 CANCE Julie 25241 D16 1905LI 0:28:44 17'57 1393 3136 +1743 2195
53 LECUYER Manon 22549 D16 5907NO 0:28:58 18'06 2960 3111 +151 3783
54 JACQUET Lise 15633 D14 5703LO 0:28:59 18'06 2841 3109 +268 3005
55 CAZEMAYOR Tess 22291 D16 3318AQ 0:29:36 18'30 3151 3044 -107 3416
56 DELAPORTE Léa 20067 D16 5116CA 0:29:39 18'31 3285 3039 -246 3671
57 BUCAMP Noémie 25200 D16 6008PI 0:29:42 18'33 2088 3034 +946 2925
58 FEUGEAS Clothilde 22198 D16 1905LI 0:29:42 18'33 2388 3034 +646 2855
59 VAN TORHOUDT Adèle 26885 D18 1403NM 0:29:46 18'36 3027 0
60 GONNEAUD Perrine 11385 D18 7109BO 0:29:57 18'43 3496 3008 -488 3644
61 JEANNERET Julie 20160 D16 7109BO 0:29:58 18'43 2256 3007 +751 2776
62 DOUTRELANT Justine 26929 D16 5907NO 0:30:01 18'45 3002 2137
63 DEMESSANCE Annaik 25595 D18 6008PI 0:30:08 18'50 2763 2990 +227 3201
64 SOUAN Cécile 26423 D16 7707IF 0:30:16 18'55 2262 2977 +715 2643
65 FOLTZER Cécile 26907 D16 2517FC 0:30:22 18'58 2967 2737
66 DUVAL Manon 25002 D14 0207PI 0:30:26 19'01 2029 2961 +932 3010
67 COUTANCE Marion 26100 D18 1403NM 0:30:29 19'03 2116 2956 +840 2463
68 GUINOT Marion 15018 D16 2108BO 0:30:30 19'03 3738 2954 -784 4159
69 BASSET Noëllie 24039 D14 6911RA 0:30:36 19'07 2062 2945 +883 2062
70 VOLPATO Suzelle 18968 D14 4709AQ 0:30:42 19'11 2977 2935 -42 3021
71 NICOLLE Léonie 25722 D14 1403NM 0:31:07 19'26 1635 2896 +1261 2642
72 CHABANCE Lucile 23077 D14 4201RA 0:31:56 19'57 2822 0
73 GRESSIER Léa 24242 D14 6208NO 0:32:09 20'05 1317 2803 +1486 1680
74 GREBEL Louise 12587 D14 7305RA 0:32:10 20'06 2416 2801 +385 2440
75 BULLIER Alisson 23427 D16 0207PI 0:32:15 20'09 2678 2794 +116 3458
76 GRENEY Diane 25277 D14 6804AL 0:32:18 20'11 2466 2790 +324 3043
77 FLORENT Roxane 26927 D18 5907NO 0:32:27 20'16 2777 2523
78 DANIEL Zoe 24364 D14 8104MP 0:33:08 20'42 1513 2719 +1206 2350
79 HAU Pauline 24804 D16 6208NO 0:33:31 20'56 2688 0
80 DUFOUR Marie 26623 D16 7407RA 0:34:18 21'26 2627 2246
81 DELVA Lou 26620 D16 7407RA 0:35:08 21'57 2565 2253
82 VERBEKE romane 26906 D16 6208NO 0:35:17 22'03 2554 0
83 OUDIN Emma 15488 D14 6804AL 0:35:44 22'20 2223 2522 +299 2861
84 VANOVERBERGHE Mathilde 22238 D14 6208NO 0:36:19 22'41 2216 2481 +265 2601
85 REYDANT Juliette 19882 D16 2704NM 0:36:58 23'06 2437 2191
86 PERREARD-GARIN Soraya 25343 D14 7407RA 0:37:46 23'36 2027 2386 +359 2346
87 DUPONT Capucine 26535 D14 0207PI 0:38:08 23'50 2363 1875
88 GUENIN Justine 16949 D14 5116CA 0:38:10 23'51 2475 2361 -114 2694
89 AUBERT Sophie 23116 D14 1705PC 0:38:27 24'01 2343 2083
90 DESCOURVIERES Perrine 25550 D16 7407RA 0:42:12 26'22 2150 2135 -15 2317
91 FIGARD Cécile 26475 D16 7707IF 0:46:19 28'56 0 1945 1867
92 MORIN Laura 23391 D18 2208BR 0:47:54 29'56 2312 1881 -431 2312
93 HUMMEL-AZAIS Margaux 18432 D18 7403RA 0:52:14 32'38 6435 1725 -4710 6435
94 LABROCHE Claire 26570 D14 0207PI 0:56:37 35'23 1591 1636
95 GUILLOT Clémence 24955 D14 1705PC 1:03:33 39'43 2066 1418 -648 2247
96 RAMBAUD Maelyne 26696 D14 2610RA 1:09:23 43'21 1299 1273
PINZELLI Tamara 23551 D16 1905LI pm None 3364 0 3621
VERBEKE Marie-Léa 24805 D16 6208NO pm None 0 0
GLAUDIN Clémentine 25899 D18 1403NM pm None 2313 0 2313
VASILYEVA Véronika 25923 D16 5402LO pm None 2848 0 3323
PIGEON Clémence 21260 D16 1403NM pm None 1404 0 1918
DASSE-VINAY Clemence 19954 D14 5302PL pm None 862 0 880
LAURENT Manon 25577 D16 5907NO pm None 2523 0 2670
MORIN Lucie 23393 D16 2208BR pm None 1637 0 1637